Tina-c — 2APY2 — position and weather

sailwx.info

Track history (hours):
 
Tides and Currents Weather Stations Pressure Air Temp Water Temp Dewpoint Dewpoint Depression Visibility Wind Speed Wind Dir Waves Ship Positions

Tina-c

Last reported at 2017-Dec-15 14:52 UTC. Time now 2017-Dec-17 00:44 UTC.
Position N 45°56' W 000°57'.

Length 99 m; draft 6.4 m.

Type: Cargo ship. MMSI: 235061987.

Date/timePositionNaut miles runAvg speedWind from/ knotsBaromVisibWave heightAir tempDewpointWater temp
2017-Dec-15 14:52N 45°56' W 000°57'2 4.4
2017-Dec-15 14:27N 45°55' W 000°59'2 5.4
2017-Dec-15 14:00N 45°57' W 000°60'3 5.6
2017-Dec-15 13:30N 45°57' W 001°04'5 9.2
2017-Dec-15 13:00N 45°60' W 001°09'510.3
2017-Dec-15 12:30N 46°04' W 001°14'4 8.1
2017-Dec-15 12:00N 46°06' W 001°19'510.7
2017-Dec-15 11:30N 46°07' W 001°26'4 8.6
2017-Dec-15 11:00N 46°07' W 001°32'1 2.4
2017-Dec-15 10:30N 46°07' W 001°31'1 2.5
2017-Dec-15 10:00N 46°07' W 001°29'1 2.0
2017-Dec-15 09:30N 46°07' W 001°28'1 2.0
2017-Dec-15 09:00N 46°07' W 001°26'1 2.9
2017-Dec-15 08:30N 46°07' W 001°24'0 1.0
2017-Dec-15 08:00N 46°07' W 001°25'2 4.9
2017-Dec-15 07:30N 46°07' W 001°28'2 4.7
2017-Dec-15 07:00N 46°07' W 001°32'2 4.8
2017-Dec-15 06:30N 46°08' W 001°35'3 5.2
2017-Dec-15 05:51N 46°08' W 001°40'  
2017-Dec-12 10:38N 39°20' W 009°51'1 8.3
2017-Dec-12 10:30N 39°19' W 009°51'4 8.5
2017-Dec-12 10:00N 39°15' W 009°51'4 8.4
2017-Dec-12 09:30N 39°11' W 009°50'4 8.3
2017-Dec-12 09:00N 39°07' W 009°50'4 8.4
2017-Dec-12 08:30N 39°02' W 009°50'3 6.8
2017-Dec-12 08:00N 38°59' W 009°50'4 8.1
2017-Dec-12 07:30N 38°55' W 009°51'4 8.0
2017-Dec-12 07:00N 38°51' W 009°51'4 8.1
2017-Dec-12 06:30N 38°47' W 009°51'4 8.1
2017-Dec-12 06:00N 38°43' W 009°51'4 7.9
2017-Dec-12 05:30N 38°39' W 009°51'4 7.6
2017-Dec-12 05:00N 38°35' W 009°51'4 7.2
2017-Dec-12 04:30N 38°31' W 009°51'4 7.4
2017-Dec-12 04:00N 38°28' W 009°51'3 6.6
2017-Dec-12 03:30N 38°24' W 009°51'3 6.1
2017-Dec-12 03:00N 38°21' W 009°51'176 5.8
2017-Dec-10 20:45N 35°27' W 009°21'3 9.8
2017-Dec-10 20:26N 35°24' W 009°20'  
Track history (hours):
 
Tides and Currents Weather Stations Pressure Air Temp Water Temp Dewpoint Dewpoint Depression Visibility Wind Speed Wind Dir Waves Ship Positions

Tina-c

Last reported at 2017-Dec-15 14:52 UTC. Time now 2017-Dec-17 00:44 UTC.
Position N 45°56' W 000°57'.

Length 99 m; draft 6.4 m.

Type: Cargo ship. MMSI: 235061987.

Date/timePositionNaut miles runAvg speedWind from/ knotsBaromVisibWave heightAir tempDewpointWater temp
2017-Dec-15 14:52N 45°56' W 000°57'2 4.4
2017-Dec-15 14:27N 45°55' W 000°59'2 5.4
2017-Dec-15 14:00N 45°57' W 000°60'3 5.6
2017-Dec-15 13:30N 45°57' W 001°04'5 9.2
2017-Dec-15 13:00N 45°60' W 001°09'510.3
2017-Dec-15 12:30N 46°04' W 001°14'4 8.1
2017-Dec-15 12:00N 46°06' W 001°19'510.7
2017-Dec-15 11:30N 46°07' W 001°26'4 8.6
2017-Dec-15 11:00N 46°07' W 001°32'1 2.4
2017-Dec-15 10:30N 46°07' W 001°31'1 2.5
2017-Dec-15 10:00N 46°07' W 001°29'1 2.0
2017-Dec-15 09:30N 46°07' W 001°28'1 2.0
2017-Dec-15 09:00N 46°07' W 001°26'1 2.9
2017-Dec-15 08:30N 46°07' W 001°24'0 1.0
2017-Dec-15 08:00N 46°07' W 001°25'2 4.9
2017-Dec-15 07:30N 46°07' W 001°28'2 4.7
2017-Dec-15 07:00N 46°07' W 001°32'2 4.8
2017-Dec-15 06:30N 46°08' W 001°35'3 5.2
2017-Dec-15 05:51N 46°08' W 001°40'  
2017-Dec-12 10:38N 39°20' W 009°51'1 8.3
2017-Dec-12 10:30N 39°19' W 009°51'4 8.5
2017-Dec-12 10:00N 39°15' W 009°51'4 8.4
2017-Dec-12 09:30N 39°11' W 009°50'4 8.3
2017-Dec-12 09:00N 39°07' W 009°50'4 8.4
2017-Dec-12 08:30N 39°02' W 009°50'3 6.8
2017-Dec-12 08:00N 38°59' W 009°50'4 8.1
2017-Dec-12 07:30N 38°55' W 009°51'4 8.0
2017-Dec-12 07:00N 38°51' W 009°51'4 8.1
2017-Dec-12 06:30N 38°47' W 009°51'4 8.1
2017-Dec-12 06:00N 38°43' W 009°51'4 7.9
2017-Dec-12 05:30N 38°39' W 009°51'4 7.6
2017-Dec-12 05:00N 38°35' W 009°51'4 7.2
2017-Dec-12 04:30N 38°31' W 009°51'4 7.4
2017-Dec-12 04:00N 38°28' W 009°51'3 6.6
2017-Dec-12 03:30N 38°24' W 009°51'3 6.1
2017-Dec-12 03:00N 38°21' W 009°51'176 5.8
2017-Dec-10 20:45N 35°27' W 009°21'3 9.8
2017-Dec-10 20:26N 35°24' W 009°20'  

Dump ship's entire track history